Johnsons Bayou, Louisiana
Current Conditions -  °F | °C
As of 6:15 AM on Friday 24 Oct 2014 (Local Time) from KCVW Reporting Station
Clear Clear  
Wind Chill: 54°   Ceiling: Unl
Heat Index: 54°   Visibility: 10mi
Dew Point: 52°   Wind: 6mph
Humidity: 94%   Direction: 40°NE
Pressure: 30.15"   Gusts: NA
Location:  29.8391°N, 93.6411°W
Report Text: KCVW 241115Z AUTO 04005KT 10SM CLR 12/11 A3015 RMK A01
Loading
Personal Weather Stations






























Interactive Weather Map
Tropical Storm Tracking
New forecast layout! Learn more

10-Day Weather Forecast

Advertisements
Track Severe Weather on mobile